sensor_id;sensor_type;location;lat;lon;timestamp;pressure;altitude;pressure_sealevel;temperature;humidity
17311;BME280;8773;43.300;0.394;2022-09-09T00:01:02;99587.97;;;20.51;100.00
17311;BME280;8773;43.300;0.394;2022-09-09T00:03:41;99609.16;;;20.58;100.00
17311;BME280;8773;43.300;0.394;2022-09-09T00:06:20;99615.31;;;20.71;100.00
17311;BME280;8773;43.300;0.394;2022-09-09T00:08:57;99604.69;;;20.80;100.00
17311;BME280;8773;43.300;0.394;2022-09-09T00:11:34;99608.22;;;20.78;100.00
17311;BME280;8773;43.300;0.394;2022-09-09T00:14:13;99610.84;;;20.92;100.00
17311;BME280;8773;43.300;0.394;2022-09-09T00:16:49;99622.28;;;21.04;100.00
17311;BME280;8773;43.300;0.394;2022-09-09T00:19:23;99616.97;;;21.06;100.00
17311;BME280;8773;43.300;0.394;2022-09-09T00:22:00;99616.97;;;21.03;100.00
17311;BME280;8773;43.300;0.394;2022-09-09T00:24:40;99619.66;;;21.01;100.00
17311;BME280;8773;43.300;0.394;2022-09-09T00:27:16;99617.00;;;21.00;100.00
17311;BME280;8773;43.300;0.394;2022-09-09T00:29:52;99599.38;;;20.86;100.00
17311;BME280;8773;43.300;0.394;2022-09-09T00:32:22;99600.19;;;21.01;100.00
17311;BME280;8773;43.300;0.394;2022-09-09T00:34:55;99609.88;;;21.11;100.00
17311;BME280;8773;43.300;0.394;2022-09-09T00:37:25;99608.13;;;21.01;100.00
17311;BME280;8773;43.300;0.394;2022-09-09T00:39:57;99602.84;;;21.04;100.00
17311;BME280;8773;43.300;0.394;2022-09-09T00:42:32;99604.56;;;21.11;100.00
17311;BME280;8773;43.300;0.394;2022-09-09T00:45:19;99599.28;;;21.14;100.00
17311;BME280;8773;43.300;0.394;2022-09-09T00:47:53;99595.78;;;21.00;100.00
17311;BME280;8773;43.300;0.394;2022-09-09T00:50:33;99605.47;;;21.12;100.00
17311;BME280;8773;43.300;0.394;2022-09-09T00:53:12;99601.00;;;21.24;100.00
17311;BME280;8773;43.300;0.394;2022-09-09T00:55:49;99584.16;;;21.28;100.00
17311;BME280;8773;43.300;0.394;2022-09-09T00:58:19;99602.78;;;21.16;100.00
17311;BME280;8773;43.300;0.394;2022-09-09T01:00:52;99606.44;;;20.87;100.00
17311;BME280;8773;43.300;0.394;2022-09-09T01:03:31;99601.22;;;20.52;100.00
17311;BME280;8773;43.300;0.394;2022-09-09T01:06:04;99609.19;;;20.43;100.00
17311;BME280;8773;43.300;0.394;2022-09-09T01:08:44;99604.75;;;20.36;100.00
17311;BME280;8773;43.300;0.394;2022-09-09T01:11:21;99609.19;;;20.40;100.00
17311;BME280;8773;43.300;0.394;2022-09-09T01:13:53;99610.03;;;20.57;100.00
17311;BME280;8773;43.300;0.394;2022-09-09T01:16:27;99610.88;;;20.78;100.00
17311;BME280;8773;43.300;0.394;2022-09-09T01:18:59;99609.13;;;20.77;100.00
17311;BME280;8773;43.300;0.394;2022-09-09T01:21:35;99592.34;;;20.61;100.00
17311;BME280;8773;43.300;0.394;2022-09-09T01:24:19;99609.09;;;20.80;100.00
17311;BME280;8773;43.300;0.394;2022-09-09T01:26:51;99611.75;;;20.80;100.00
17311;BME280;8773;43.300;0.394;2022-09-09T01:29:21;99615.31;;;20.74;100.00
17311;BME280;8773;43.300;0.394;2022-09-09T01:31:55;99623.28;;;20.57;100.00
17311;BME280;8773;43.300;0.394;2022-09-09T01:34:25;99614.47;;;20.35;100.00
17311;BME280;8773;43.300;0.394;2022-09-09T01:36:59;99611.81;;;20.00;100.00
17311;BME280;8773;43.300;0.394;2022-09-09T01:39:32;99615.34;;;19.85;100.00
17311;BME280;8773;43.300;0.394;2022-09-09T01:42:03;99610.06;;;19.79;100.00
17311;BME280;8773;43.300;0.394;2022-09-09T01:44:34;99600.34;;;20.01;100.00
17311;BME280;8773;43.300;0.394;2022-09-09T01:47:03;99613.56;;;19.78;100.00
17311;BME280;8773;43.300;0.394;2022-09-09T01:49:32;99616.22;;;19.93;100.00
17311;BME280;8773;43.300;0.394;2022-09-09T01:52:00;99615.38;;;19.94;100.00
17311;BME280;8773;43.300;0.394;2022-09-09T01:54:31;99612.66;;;19.61;100.00
17311;BME280;8773;43.300;0.394;2022-09-09T01:57:08;99604.75;;;19.76;100.00
17311;BME280;8773;43.300;0.394;2022-09-09T01:59:47;99606.53;;;20.01;100.00
17311;BME280;8773;43.300;0.394;2022-09-09T02:02:18;99607.41;;;20.27;100.00
17311;BME280;8773;43.300;0.394;2022-09-09T02:04:48;99605.66;;;20.39;100.00
17311;BME280;8773;43.300;0.394;2022-09-09T02:07:31;99608.28;;;20.41;100.00
17311;BME280;8773;43.300;0.394;2022-09-09T02:10:09;99610.06;;;20.16;100.00
17311;BME280;8773;43.300;0.394;2022-09-09T02:12:44;99609.16;;;20.06;100.00
17311;BME280;8773;43.300;0.394;2022-09-09T02:15:19;99608.28;;;19.96;100.00
17311;BME280;8773;43.300;0.394;2022-09-09T02:17:50;99610.94;;;20.10;100.00
17311;BME280;8773;43.300;0.394;2022-09-09T02:20:20;99606.53;;;20.05;100.00
17311;BME280;8773;43.300;0.394;2022-09-09T02:22:52;99602.13;;;20.10;100.00
17311;BME280;8773;43.300;0.394;2022-09-09T02:25:23;99606.53;;;19.98;100.00
17311;BME280;8773;43.300;0.394;2022-09-09T02:27:55;99604.75;;;20.04;100.00
17311;BME280;8773;43.300;0.394;2022-09-09T02:30:25;99605.63;;;20.16;100.00
17311;BME280;8773;43.300;0.394;2022-09-09T02:32:56;99599.47;;;20.16;100.00
17311;BME280;8773;43.300;0.394;2022-09-09T02:35:27;99582.72;;;20.01;100.00
17311;BME280;8773;43.300;0.394;2022-09-09T02:37:59;99588.88;;;19.67;100.00
17311;BME280;8773;43.300;0.394;2022-09-09T02:40:29;99603.88;;;19.75;100.00
17311;BME280;8773;43.300;0.394;2022-09-09T02:42:58;99610.06;;;19.97;100.00
17311;BME280;8773;43.300;0.394;2022-09-09T02:45:34;99608.31;;;19.84;100.00
17311;BME280;8773;43.300;0.394;2022-09-09T02:48:09;99608.28;;;19.96;100.00
17311;BME280;8773;43.300;0.394;2022-09-09T02:50:42;99600.34;;;19.84;100.00
17311;BME280;8773;43.300;0.394;2022-09-09T02:53:16;99602.00;;;19.41;100.00
17311;BME280;8773;43.300;0.394;2022-09-09T02:55:48;99610.03;;;19.67;100.00
17311;BME280;8773;43.300;0.394;2022-09-09T02:58:23;99611.81;;;19.92;100.00
17311;BME280;8773;43.300;0.394;2022-09-09T03:00:51;99618.88;;;20.16;100.00
17311;BME280;8773;43.300;0.394;2022-09-09T03:03:19;99633.03;;;20.01;100.00
17311;BME280;8773;43.300;0.394;2022-09-09T03:05:51;99635.66;;;20.06;100.00
17311;BME280;8773;43.300;0.394;2022-09-09T03:08:19;99642.72;;;20.18;100.00
17311;BME280;8773;43.300;0.394;2022-09-09T03:10:47;99634.78;;;20.30;100.00
17311;BME280;8773;43.300;0.394;2022-09-09T03:13:15;99633.91;;;20.34;100.00
17311;BME280;8773;43.300;0.394;2022-09-09T03:15:47;99640.09;;;20.46;100.00
17311;BME280;8773;43.300;0.394;2022-09-09T03:18:16;99648.03;;;20.49;100.00
17311;BME280;8773;43.300;0.394;2022-09-09T03:20:44;99648.06;;;20.39;100.00
17311;BME280;8773;43.300;0.394;2022-09-09T03:23:15;99642.72;;;20.22;100.00
17311;BME280;8773;43.300;0.394;2022-09-09T03:25:46;99641.78;;;19.70;100.00
17311;BME280;8773;43.300;0.394;2022-09-09T03:28:15;99628.19;;;18.81;100.00
17311;BME280;8773;43.300;0.394;2022-09-09T03:30:43;99618.25;;;18.44;100.00
17311;BME280;8773;43.300;0.394;2022-09-09T03:33:13;99598.94;;;18.50;100.00
17311;BME280;8773;43.300;0.394;2022-09-09T03:35:45;99589.94;;;18.22;100.00
17311;BME280;8773;43.300;0.394;2022-09-09T03:38:15;99590.69;;;18.05;100.00
17311;BME280;8773;43.300;0.394;2022-09-09T03:40:49;99596.88;;;18.11;100.00
17311;BME280;8773;43.300;0.394;2022-09-09T03:43:17;99604.94;;;18.27;100.00
17311;BME280;8773;43.300;0.394;2022-09-09T03:45:46;99605.97;;;18.54;100.00
17311;BME280;8773;43.300;0.394;2022-09-09T03:48:17;99596.16;;;18.33;100.00
17311;BME280;8773;43.300;0.394;2022-09-09T03:50:45;99592.47;;;18.11;100.00
17311;BME280;8773;43.300;0.394;2022-09-09T03:53:14;99584.59;;;18.16;100.00
17311;BME280;8773;43.300;0.394;2022-09-09T03:55:44;99593.50;;;18.27;100.00
17311;BME280;8773;43.300;0.394;2022-09-09T03:58:12;99597.13;;;18.43;100.00
17311;BME280;8773;43.300;0.394;2022-09-09T04:00:41;99598.03;;;18.48;100.00
17311;BME280;8773;43.300;0.394;2022-09-09T04:03:11;99595.34;;;18.40;100.00
17311;BME280;8773;43.300;0.394;2022-09-09T04:05:41;99595.41;;;18.51;100.00
17311;BME280;8773;43.300;0.394;2022-09-09T04:08:09;99602.41;;;18.46;100.00
17311;BME280;8773;43.300;0.394;2022-09-09T04:10:38;99598.00;;;18.45;100.00
17311;BME280;8773;43.300;0.394;2022-09-09T04:13:06;99594.63;;;18.69;100.00
17311;BME280;8773;43.300;0.394;2022-09-09T04:15:34;99601.63;;;18.58;100.00
17311;BME280;8773;43.300;0.394;2022-09-09T04:18:03;99596.16;;;18.30;100.00
17311;BME280;8773;43.300;0.394;2022-09-09T04:20:32;99590.72;;;18.07;100.00
17311;BME280;8773;43.300;0.394;2022-09-09T04:23:01;99593.56;;;18.38;100.00
17311;BME280;8773;43.300;0.394;2022-09-09T04:25:30;99583.97;;;18.57;100.00
17311;BME280;8773;43.300;0.394;2022-09-09T04:27:58;99581.03;;;18.09;100.00
17311;BME280;8773;43.300;0.394;2022-09-09T04:30:26;99588.34;;;18.50;100.00
17311;BME280;8773;43.300;0.394;2022-09-09T04:32:54;99588.38;;;18.56;100.00
17311;BME280;8773;43.300;0.394;2022-09-09T04:35:24;99579.53;;;18.51;100.00
17311;BME280;8773;43.300;0.394;2022-09-09T04:37:53;99587.53;;;18.57;100.00
17311;BME280;8773;43.300;0.394;2022-09-09T04:40:23;99585.00;;;18.79;100.00
17311;BME280;8773;43.300;0.394;2022-09-09T04:42:51;99590.16;;;18.56;100.00
17311;BME280;8773;43.300;0.394;2022-09-09T04:45:19;99599.72;;;18.41;100.00
17311;BME280;8773;43.300;0.394;2022-09-09T04:47:47;99597.91;;;18.34;100.00
17311;BME280;8773;43.300;0.394;2022-09-09T04:50:15;99591.72;;;18.26;100.00
17311;BME280;8773;43.300;0.394;2022-09-09T04:52:43;99592.56;;;18.20;100.00
17311;BME280;8773;43.300;0.394;2022-09-09T04:55:12;99590.78;;;18.21;100.00
17311;BME280;8773;43.300;0.394;2022-09-09T04:57:41;99591.00;;;18.50;100.00
17311;BME280;8773;43.300;0.394;2022-09-09T05:00:10;99594.53;;;18.54;100.00
17311;BME280;8773;43.300;0.394;2022-09-09T05:02:39;99592.75;;;18.48;100.00
17311;BME280;8773;43.300;0.394;2022-09-09T05:05:09;99593.50;;;18.28;100.00
17311;BME280;8773;43.300;0.394;2022-09-09T05:07:37;99589.72;;;17.99;100.00
17311;BME280;8773;43.300;0.394;2022-09-09T05:10:06;99590.63;;;17.98;100.00
17311;BME280;8773;43.300;0.394;2022-09-09T05:12:34;99591.59;;;18.07;100.00
17311;BME280;8773;43.300;0.394;2022-09-09T05:15:05;99587.88;;;17.92;100.00
17311;BME280;8773;43.300;0.394;2022-09-09T05:17:33;99587.16;;;18.02;100.00
17311;BME280;8773;43.300;0.394;2022-09-09T05:20:02;99595.00;;;17.96;100.00
17311;BME280;8773;43.300;0.394;2022-09-09T05:22:35;99599.41;;;17.97;100.00
17311;BME280;8773;43.300;0.394;2022-09-09T05:25:04;99597.47;;;17.80;100.00
17311;BME280;8773;43.300;0.394;2022-09-09T05:27:33;99608.28;;;18.08;100.00
17311;BME280;8773;43.300;0.394;2022-09-09T05:30:02;99611.75;;;18.01;100.00
17311;BME280;8773;43.300;0.394;2022-09-09T05:32:32;99610.78;;;17.93;100.00
17311;BME280;8773;43.300;0.394;2022-09-09T05:35:00;99609.91;;;17.92;100.00
17311;BME280;8773;43.300;0.394;2022-09-09T05:37:30;99618.59;;;17.82;100.00
17311;BME280;8773;43.300;0.394;2022-09-09T05:39:58;99630.31;;;18.10;100.00
17311;BME280;8773;43.300;0.394;2022-09-09T05:42:29;99633.91;;;18.17;100.00
17311;BME280;8773;43.300;0.394;2022-09-09T05:44:58;99641.16;;;18.45;100.00
17311;BME280;8773;43.300;0.394;2022-09-09T05:47:28;99642.84;;;18.39;100.00
17311;BME280;8773;43.300;0.394;2022-09-09T05:49:58;99646.19;;;18.15;100.00
17311;BME280;8773;43.300;0.394;2022-09-09T05:52:25;99648.09;;;18.34;100.00
17311;BME280;8773;43.300;0.394;2022-09-09T05:54:53;99655.97;;;18.28;100.00
17311;BME280;8773;43.300;0.394;2022-09-09T05:57:23;99660.41;;;18.34;100.00
17311;BME280;8773;43.300;0.394;2022-09-09T05:59:51;99656.91;;;18.33;100.00
17311;BME280;8773;43.300;0.394;2022-09-09T06:02:20;99683.41;;;18.48;100.00
17311;BME280;8773;43.300;0.394;2022-09-09T06:04:48;99689.56;;;18.46;100.00
17311;BME280;8773;43.300;0.394;2022-09-09T06:07:17;99692.22;;;18.46;100.00
17311;BME280;8773;43.300;0.394;2022-09-09T06:09:45;99690.25;;;18.23;100.00
17311;BME280;8773;43.300;0.394;2022-09-09T06:12:14;99697.28;;;18.21;100.00
17311;BME280;8773;43.300;0.394;2022-09-09T06:14:41;99705.00;;;18.00;100.00
17311;BME280;8773;43.300;0.394;2022-09-09T06:17:12;99707.66;;;18.03;100.00
17311;BME280;8773;43.300;0.394;2022-09-09T06:19:40;99717.41;;;18.12;100.00
17311;BME280;8773;43.300;0.394;2022-09-09T06:22:07;99723.44;;;17.98;100.00
17311;BME280;8773;43.300;0.394;2022-09-09T06:24:40;99721.75;;;18.02;100.00
17311;BME280;8773;43.300;0.394;2022-09-09T06:27:08;99726.31;;;18.20;100.00
17311;BME280;8773;43.300;0.394;2022-09-09T06:29:37;99723.69;;;18.20;100.00
17311;BME280;8773;43.300;0.394;2022-09-09T06:32:05;99729.81;;;18.19;100.00
17311;BME280;8773;43.300;0.394;2022-09-09T06:34:35;99728.19;;;18.33;100.00
17311;BME280;8773;43.300;0.394;2022-09-09T06:37:03;99740.50;;;18.34;100.00
17311;BME280;8773;43.300;0.394;2022-09-09T06:39:33;99731.75;;;18.38;100.00
17311;BME280;8773;43.300;0.394;2022-09-09T06:42:03;99735.22;;;18.34;100.00
17311;BME280;8773;43.300;0.394;2022-09-09T06:44:31;99736.94;;;18.24;100.00
17311;BME280;8773;43.300;0.394;2022-09-09T06:47:01;99734.31;;;18.27;100.00
17311;BME280;8773;43.300;0.394;2022-09-09T06:49:29;99737.84;;;18.29;100.00
17311;BME280;8773;43.300;0.394;2022-09-09T06:51:57;99733.69;;;18.55;100.00
17311;BME280;8773;43.300;0.394;2022-09-09T06:54:25;99747.03;;;18.76;100.00
17311;BME280;8773;43.300;0.394;2022-09-09T06:56:54;99745.44;;;18.93;100.00
17311;BME280;8773;43.300;0.394;2022-09-09T06:59:31;99756.03;;;18.97;100.00
17311;BME280;8773;43.300;0.394;2022-09-09T07:01:59;99759.50;;;18.88;100.00
17311;BME280;8773;43.300;0.394;2022-09-09T07:04:28;99759.41;;;18.79;100.00
17311;BME280;8773;43.300;0.394;2022-09-09T07:06:56;99755.69;;;18.55;100.00
17311;BME280;8773;43.300;0.394;2022-09-09T07:09:25;99759.34;;;18.69;100.00
17311;BME280;8773;43.300;0.394;2022-09-09T07:11:54;99761.22;;;18.80;100.00
17311;BME280;8773;43.300;0.394;2022-09-09T07:14:24;99760.09;;;18.55;100.00
17311;BME280;8773;43.300;0.394;2022-09-09T07:16:54;99754.88;;;18.65;100.00
17311;BME280;8773;43.300;0.394;2022-09-09T07:19:28;99754.00;;;18.65;100.00
17311;BME280;8773;43.300;0.394;2022-09-09T07:21:55;99771.00;;;18.94;100.00
17311;BME280;8773;43.300;0.394;2022-09-09T07:24:23;99761.38;;;19.06;100.00
17311;BME280;8773;43.300;0.394;2022-09-09T07:26:51;99763.22;;;19.18;100.00
17311;BME280;8773;43.300;0.394;2022-09-09T07:29:22;99775.44;;;19.00;100.00
17311;BME280;8773;43.300;0.394;2022-09-09T07:31:50;99776.09;;;18.73;100.00
17311;BME280;8773;43.300;0.394;2022-09-09T07:34:20;99780.44;;;18.68;100.00
17311;BME280;8773;43.300;0.394;2022-09-09T07:36:48;99783.28;;;18.88;100.00
17311;BME280;8773;43.300;0.394;2022-09-09T07:39:16;99780.63;;;18.85;100.00
17311;BME280;8773;43.300;0.394;2022-09-09T07:41:45;99784.25;;;18.98;100.00
17311;BME280;8773;43.300;0.394;2022-09-09T07:44:15;99787.81;;;19.04;100.00
17311;BME280;8773;43.300;0.394;2022-09-09T07:46:44;99788.75;;;19.14;100.00
17311;BME280;8773;43.300;0.394;2022-09-09T07:49:13;99785.28;;;19.20;100.00
17311;BME280;8773;43.300;0.394;2022-09-09T07:51:45;99795.03;;;19.31;100.00
17311;BME280;8773;43.300;0.394;2022-09-09T07:54:16;99797.63;;;19.21;100.00
17311;BME280;8773;43.300;0.394;2022-09-09T07:56:46;99794.94;;;19.16;100.00
17311;BME280;8773;43.300;0.394;2022-09-09T07:59:16;99800.41;;;19.42;100.00
17311;BME280;8773;43.300;0.394;2022-09-09T08:01:46;99802.13;;;19.37;100.00
17311;BME280;8773;43.300;0.394;2022-09-09T08:04:17;99801.91;;;19.05;100.00
17311;BME280;8773;43.300;0.394;2022-09-09T08:06:49;99804.63;;;19.15;100.00
17311;BME280;8773;43.300;0.394;2022-09-09T08:09:19;99812.63;;;19.25;100.00
17311;BME280;8773;43.300;0.394;2022-09-09T08:11:47;99813.28;;;18.93;100.00
17311;BME280;8773;43.300;0.394;2022-09-09T08:14:16;99830.59;;;18.63;100.00
17311;BME280;8773;43.300;0.394;2022-09-09T08:16:46;99814.78;;;18.65;100.00
17311;BME280;8773;43.300;0.394;2022-09-09T08:19:16;99816.56;;;18.67;100.00
17311;BME280;8773;43.300;0.394;2022-09-09T08:21:45;99823.84;;;18.90;100.00
17311;BME280;8773;43.300;0.394;2022-09-09T08:24:14;99820.38;;;18.97;100.00
17311;BME280;8773;43.300;0.394;2022-09-09T08:26:44;99823.22;;;19.28;100.00
17311;BME280;8773;43.300;0.394;2022-09-09T08:29:13;99831.31;;;19.51;100.00
17311;BME280;8773;43.300;0.394;2022-09-09T08:31:43;99834.16;;;19.86;100.00
17311;BME280;8773;43.300;0.394;2022-09-09T08:34:11;99847.53;;;20.18;100.00
17311;BME280;8773;43.300;0.394;2022-09-09T08:36:42;99846.69;;;20.32;100.00
17311;BME280;8773;43.300;0.394;2022-09-09T08:39:12;99843.13;;;20.28;100.00
17311;BME280;8773;43.300;0.394;2022-09-09T08:44:57;99848.50;;;20.37;100.00
17311;BME280;8773;43.300;0.394;2022-09-09T08:47:37;99850.28;;;20.54;100.00
17311;BME280;8773;43.300;0.394;2022-09-09T08:50:18;99860.03;;;20.69;100.00
17311;BME280;8773;43.300;0.394;2022-09-09T08:52:52;99850.34;;;20.69;100.00
17311;BME280;8773;43.300;0.394;2022-09-09T08:55:32;99860.91;;;20.60;100.00
17311;BME280;8773;43.300;0.394;2022-09-09T08:58:11;99867.09;;;20.63;100.00
17311;BME280;8773;43.300;0.394;2022-09-09T09:00:49;99869.75;;;20.47;100.00
17311;BME280;8773;43.300;0.394;2022-09-09T09:03:28;99863.53;;;20.48;100.00
17311;BME280;8773;43.300;0.394;2022-09-09T09:06:04;99877.69;;;20.60;100.00
17311;BME280;8773;43.300;0.394;2022-09-09T09:08:39;99874.22;;;20.89;100.00
17311;BME280;8773;43.300;0.394;2022-09-09T09:11:11;99878.59;;;20.61;100.00
17311;BME280;8773;43.300;0.394;2022-09-09T09:13:45;99875.94;;;20.73;100.00
17311;BME280;8773;43.300;0.394;2022-09-09T09:16:22;99879.47;;;20.74;100.00
17311;BME280;8773;43.300;0.394;2022-09-09T09:18:51;99881.13;;;20.27;100.00
17311;BME280;8773;43.300;0.394;2022-09-09T09:21:26;99874.19;;;20.60;100.00
17311;BME280;8773;43.300;0.394;2022-09-09T09:23:59;99878.56;;;20.53;100.00
17311;BME280;8773;43.300;0.394;2022-09-09T09:26:31;99875.06;;;20.71;100.00
17311;BME280;8773;43.300;0.394;2022-09-09T09:29:09;99879.50;;;20.83;100.00
17311;BME280;8773;43.300;0.394;2022-09-09T09:31:38;99884.81;;;20.81;100.00
17311;BME280;8773;43.300;0.394;2022-09-09T09:34:08;99888.38;;;20.90;100.00
17311;BME280;8773;43.300;0.394;2022-09-09T09:36:41;99891.91;;;21.07;100.00
17311;BME280;8773;43.300;0.394;2022-09-09T09:39:22;99889.25;;;21.62;100.00
17311;BME280;8773;43.300;0.394;2022-09-09T09:42:11;99892.72;;;21.83;100.00
17311;BME280;8773;43.300;0.394;2022-09-09T09:44:42;99890.97;;;21.82;100.00
17311;BME280;8773;43.300;0.394;2022-09-09T09:47:12;99901.50;;;22.17;100.00
17311;BME280;8773;43.300;0.394;2022-09-09T09:49:51;99896.91;;;22.50;100.00
17311;BME280;8773;43.300;0.394;2022-09-09T09:52:22;99904.94;;;22.44;100.00
17311;BME280;8773;43.300;0.394;2022-09-09T09:54:54;99907.66;;;22.27;100.00
17311;BME280;8773;43.300;0.394;2022-09-09T09:57:26;99904.91;;;22.45;100.00
17311;BME280;8773;43.300;0.394;2022-09-09T10:00:12;99903.09;;;22.61;100.00
17311;BME280;8773;43.300;0.394;2022-09-09T10:02:42;99903.84;;;22.82;100.00
17311;BME280;8773;43.300;0.394;2022-09-09T10:05:14;99909.16;;;22.78;100.00
17311;BME280;8773;43.300;0.394;2022-09-09T10:07:43;99908.22;;;22.90;100.00
17311;BME280;8773;43.300;0.394;2022-09-09T10:10:25;99906.13;;;23.37;100.00
17311;BME280;8773;43.300;0.394;2022-09-09T10:13:02;99909.44;;;23.60;100.00
17311;BME280;8773;43.300;0.394;2022-09-09T10:15:41;99912.00;;;23.68;100.00
17311;BME280;8773;43.300;0.394;2022-09-09T10:18:29;99913.28;;;23.24;100.00
17311;BME280;8773;43.300;0.394;2022-09-09T10:21:12;99914.56;;;23.82;100.00
17311;BME280;8773;43.300;0.394;2022-09-09T10:24:02;99905.50;;;23.98;100.00
17311;BME280;8773;43.300;0.394;2022-09-09T10:26:40;99906.28;;;24.11;100.00
17311;BME280;8773;43.300;0.394;2022-09-09T10:29:30;99913.44;;;24.04;100.00
17311;BME280;8773;43.300;0.394;2022-09-09T10:32:19;99917.16;;;24.62;100.00
17311;BME280;8773;43.300;0.394;2022-09-09T10:34:56;99909.00;;;24.76;100.00
17311;BME280;8773;43.300;0.394;2022-09-09T10:37:37;99910.38;;;24.37;100.00
17311;BME280;8773;43.300;0.394;2022-09-09T10:40:34;99911.09;;;24.51;100.00
17311;BME280;8773;43.300;0.394;2022-09-09T10:43:15;99912.88;;;24.49;100.00
17311;BME280;8773;43.300;0.394;2022-09-09T10:45:56;99905.88;;;24.40;100.00
17311;BME280;8773;43.300;0.394;2022-09-09T10:48:55;99909.94;;;24.72;100.00
17311;BME280;8773;43.300;0.394;2022-09-09T10:51:34;99901.97;;;24.69;100.00
17311;BME280;8773;43.300;0.394;2022-09-09T10:54:13;99900.53;;;24.40;100.00
17311;BME280;8773;43.300;0.394;2022-09-09T10:56:51;99902.66;;;24.82;100.00
17311;BME280;8773;43.300;0.394;2022-09-09T10:59:26;99894.84;;;24.68;100.00
17311;BME280;8773;43.300;0.394;2022-09-09T11:01:58;99893.84;;;24.77;100.00
17311;BME280;8773;43.300;0.394;2022-09-09T11:04:33;99897.34;;;24.82;100.00
17311;BME280;8773;43.300;0.394;2022-09-09T11:07:07;99888.44;;;24.81;100.00
17311;BME280;8773;43.300;0.394;2022-09-09T11:09:41;99885.66;;;24.89;100.00
17311;BME280;8773;43.300;0.394;2022-09-09T11:12:17;99887.59;;;24.79;100.00
17311;BME280;8773;43.300;0.394;2022-09-09T11:14:49;99884.47;;;25.07;100.00
17311;BME280;8773;43.300;0.394;2022-09-09T11:17:22;99881.50;;;25.28;100.00
17311;BME280;8773;43.300;0.394;2022-09-09T11:19:53;99881.16;;;25.47;100.00
17311;BME280;8773;43.300;0.394;2022-09-09T11:22:26;99880.38;;;25.40;100.00
17311;BME280;8773;43.300;0.394;2022-09-09T11:24:59;99879.72;;;25.29;100.00
17311;BME280;8773;43.300;0.394;2022-09-09T11:27:32;99878.66;;;25.38;100.00
17311;BME280;8773;43.300;0.394;2022-09-09T11:30:24;99876.34;;;25.14;100.00
17311;BME280;8773;43.300;0.394;2022-09-09T11:33:41;99875.28;;;25.76;100.00
17311;BME280;8773;43.300;0.394;2022-09-09T11:36:29;99870.19;;;25.62;100.00
17311;BME280;8773;43.300;0.394;2022-09-09T11:39:07;99872.47;;;25.84;100.00
17311;BME280;8773;43.300;0.394;2022-09-09T11:41:45;99866.47;;;25.71;100.00
17311;BME280;8773;43.300;0.394;2022-09-09T11:44:19;99863.41;;;25.43;100.00
17311;BME280;8773;43.300;0.394;2022-09-09T11:46:50;99870.84;;;25.27;100.00
17311;BME280;8773;43.300;0.394;2022-09-09T11:49:27;99864.56;;;25.29;100.00
17311;BME280;8773;43.300;0.394;2022-09-09T11:51:56;99864.44;;;25.35;100.00
17311;BME280;8773;43.300;0.394;2022-09-09T11:54:29;99864.47;;;25.34;100.00
17311;BME280;8773;43.300;0.394;2022-09-09T11:56:58;99866.88;;;24.95;100.00
17311;BME280;8773;43.300;0.394;2022-09-09T11:59:33;99867.31;;;24.67;100.00
17311;BME280;8773;43.300;0.394;2022-09-09T12:02:03;99874.59;;;25.12;100.00
17311;BME280;8773;43.300;0.394;2022-09-09T12:04:43;99869.59;;;24.92;100.00
17311;BME280;8773;43.300;0.394;2022-09-09T12:07:36;99869.16;;;24.62;100.00
17311;BME280;8773;43.300;0.394;2022-09-09T12:10:20;99874.03;;;24.28;100.00
17311;BME280;8773;43.300;0.394;2022-09-09T12:12:49;99871.63;;;24.10;100.00
17311;BME280;8773;43.300;0.394;2022-09-09T12:15:28;99877.25;;;23.83;100.00
17311;BME280;8773;43.300;0.394;2022-09-09T12:17:57;99883.88;;;23.44;100.00
17311;BME280;8773;43.300;0.394;2022-09-09T12:20:55;99881.28;;;23.36;100.00
17311;BME280;8773;43.300;0.394;2022-09-09T12:23:34;99885.69;;;23.39;100.00
17311;BME280;8773;43.300;0.394;2022-09-09T12:26:21;99883.75;;;23.56;100.00
17311;BME280;8773;43.300;0.394;2022-09-09T12:29:00;99878.50;;;23.49;100.00
17311;BME280;8773;43.300;0.394;2022-09-09T12:31:35;99892.66;;;23.52;100.00
17311;BME280;8773;43.300;0.394;2022-09-09T12:34:14;99883.72;;;23.58;100.00
17311;BME280;8773;43.300;0.394;2022-09-09T12:36:47;99881.03;;;23.61;100.00
17311;BME280;8773;43.300;0.394;2022-09-09T12:39:24;99883.19;;;23.19;100.00
17311;BME280;8773;43.300;0.394;2022-09-09T12:41:56;99882.53;;;23.86;100.00
17311;BME280;8773;43.300;0.394;2022-09-09T12:44:26;99880.53;;;24.07;100.00
17311;BME280;8773;43.300;0.394;2022-09-09T12:46:56;99868.91;;;24.14;100.00
17311;BME280;8773;43.300;0.394;2022-09-09T12:49:31;99872.66;;;23.99;100.00
17311;BME280;8773;43.300;0.394;2022-09-09T12:52:02;99869.25;;;23.83;100.00
17311;BME280;8773;43.300;0.394;2022-09-09T12:54:36;99869.19;;;23.88;100.00
17311;BME280;8773;43.300;0.394;2022-09-09T12:57:09;99857.84;;;23.72;100.00
17311;BME280;8773;43.300;0.394;2022-09-09T12:59:41;99859.28;;;24.01;100.00
17311;BME280;8773;43.300;0.394;2022-09-09T13:02:18;99862.84;;;24.01;100.00
17311;BME280;8773;43.300;0.394;2022-09-09T13:04:47;99859.09;;;24.18;100.00
17311;BME280;8773;43.300;0.394;2022-09-09T13:07:17;99857.75;;;24.51;100.00
17311;BME280;8773;43.300;0.394;2022-09-09T13:09:48;99851.44;;;24.57;100.00
17311;BME280;8773;43.300;0.394;2022-09-09T13:12:21;99849.38;;;24.76;100.00
17311;BME280;8773;43.300;0.394;2022-09-09T13:14:52;99841.97;;;24.94;100.00
17311;BME280;8773;43.300;0.394;2022-09-09T13:17:22;99847.84;;;25.17;100.00
17311;BME280;8773;43.300;0.394;2022-09-09T13:19:51;99852.00;;;24.80;100.00
17311;BME280;8773;43.300;0.394;2022-09-09T13:22:22;99844.22;;;24.66;100.00
17311;BME280;8773;43.300;0.394;2022-09-09T13:25:05;99841.00;;;24.40;100.00
17311;BME280;8773;43.300;0.394;2022-09-09T13:27:35;99849.34;;;24.15;100.00
17311;BME280;8773;43.300;0.394;2022-09-09T13:30:21;99832.63;;;24.02;100.00
17311;BME280;8773;43.300;0.394;2022-09-09T13:33:05;99827.03;;;24.24;100.00